NKS850 KFLL-KEWR
Flight info
| Callsign | NKS850 |
|---|---|
| Flight time | 2h 29m |
| Altitude | 35000 |
| Route | FEALX2 ETECK GRUBR Y299 SEELO GARIC Q129 AARNN QUART PHLBO4 |
| Aircraft | A321/M-SDE3FGHIRWY/LB1 |
Departure
| Time | 2026-05-05 01:12 |
|---|---|
| Airport | Fort Lauderdale Hollywood International Airport (KFLL) |
Arrival
| Time | 2026-05-05 03:42 |
|---|---|
| Airport | Newark Liberty International Airport (KEWR) |
| Time | Latitude | Longitude | Altitude | Speed | Heading |
|---|---|---|---|---|---|
| 2026-05-05 00:37 | 26.06960 | -80.14140 | 18 ft | 0 kts | 280° |
| 2026-05-05 00:59 | 26.06958 | -80.14128 | 16 ft | 4 kts | 279° |
| 2026-05-05 00:59 | 26.06951 | -80.14104 | 17 ft | 2 kts | 317° |
| 2026-05-05 00:59 | 26.06940 | -80.14092 | 18 ft | 4 kts | 255° |
| 2026-05-05 00:59 | 26.06953 | -80.14083 | 16 ft | 4 kts | 180° |
| 2026-05-05 01:00 | 26.06968 | -80.14083 | 16 ft | 0 kts | 180° |
| 2026-05-05 01:02 | 26.06966 | -80.14083 | 16 ft | 1 kts | 180° |
| 2026-05-05 01:03 | 26.06956 | -80.14083 | 16 ft | 2 kts | 180° |
| 2026-05-05 01:03 | 26.06935 | -80.14083 | 21 ft | 4 kts | 180° |
| 2026-05-05 01:03 | 26.06907 | -80.14083 | 16 ft | 0 kts | 180° |
| 2026-05-05 01:03 | 26.06901 | -80.14083 | 16 ft | 0 kts | 180° |
| 2026-05-05 01:04 | 26.06886 | -80.14083 | 16 ft | 2 kts | 180° |
| 2026-05-05 01:04 | 26.06860 | -80.14085 | 16 ft | 6 kts | 187° |
| 2026-05-05 01:05 | 26.06818 | -80.14117 | 16 ft | 9 kts | 253° |
| 2026-05-05 01:05 | 26.06817 | -80.14196 | 16 ft | 11 kts | 270° |
| 2026-05-05 01:05 | 26.06817 | -80.14285 | 16 ft | 12 kts | 270° |
| 2026-05-05 01:05 | 26.06817 | -80.14381 | 16 ft | 13 kts | 271° |
| 2026-05-05 01:06 | 26.06818 | -80.14454 | 16 ft | 0 kts | 270° |
| 2026-05-05 01:06 | 26.06818 | -80.14461 | 16 ft | 2 kts | 270° |
| 2026-05-05 01:06 | 26.06818 | -80.14490 | 16 ft | 6 kts | 270° |
| 2026-05-05 01:06 | 26.06818 | -80.14543 | 16 ft | 8 kts | 269° |
| 2026-05-05 01:07 | 26.06782 | -80.14591 | 15 ft | 9 kts | 221° |
| 2026-05-05 01:07 | 26.06765 | -80.14657 | 15 ft | 10 kts | 271° |
| 2026-05-05 01:07 | 26.06766 | -80.14738 | 15 ft | 11 kts | 270° |
| 2026-05-05 01:07 | 26.06766 | -80.14826 | 15 ft | 12 kts | 270° |
| 2026-05-05 01:08 | 26.06747 | -80.14915 | 17 ft | 12 kts | 218° |
| 2026-05-05 01:08 | 26.06693 | -80.14961 | 18 ft | 9 kts | 261° |
| 2026-05-05 01:08 | 26.06688 | -80.15036 | 19 ft | 10 kts | 266° |
| 2026-05-05 01:08 | 26.06690 | -80.15116 | 20 ft | 11 kts | 272° |
| 2026-05-05 01:09 | 26.06695 | -80.15213 | 21 ft | 16 kts | 272° |
| 2026-05-05 01:09 | 26.06695 | -80.15367 | 16 ft | 22 kts | 271° |
| 2026-05-05 01:09 | 26.06697 | -80.15537 | 16 ft | 22 kts | 271° |
| 2026-05-05 01:09 | 26.06699 | -80.15713 | 16 ft | 23 kts | 270° |
| 2026-05-05 01:10 | 26.06682 | -80.15816 | 18 ft | 8 kts | 219° |
| 2026-05-05 01:10 | 26.06678 | -80.15819 | 17 ft | 0 kts | 210° |
| 2026-05-05 01:10 | 26.06676 | -80.15820 | 17 ft | 1 kts | 207° |
| 2026-05-05 01:11 | 26.06658 | -80.15824 | 16 ft | 5 kts | 189° |
| 2026-05-05 01:11 | 26.06606 | -80.15824 | 17 ft | 8 kts | 169° |
| 2026-05-05 01:11 | 26.06589 | -80.15779 | 19 ft | 7 kts | 90° |
| 2026-05-05 01:11 | 26.06588 | -80.15573 | 24 ft | 60 kts | 90° |
| 2026-05-05 01:12 | 26.06584 | -80.14843 | 20 ft | 126 kts | 90° |
| 2026-05-05 01:12 | 26.06590 | -80.13719 | 294 ft | 150 kts | 88° |
| 2026-05-05 01:12 | 26.06608 | -80.12569 | 920 ft | 150 kts | 86° |
| 2026-05-05 01:12 | 26.06619 | -80.11387 | 1367 ft | 160 kts | 87° |
| 2026-05-05 01:13 | 26.06640 | -80.10063 | 1440 ft | 183 kts | 88° |
| 2026-05-05 01:13 | 26.06659 | -80.08583 | 1590 ft | 200 kts | 89° |
| 2026-05-05 01:13 | 26.06676 | -80.06977 | 1700 ft | 217 kts | 88° |
| 2026-05-05 01:13 | 26.06695 | -80.05217 | 1828 ft | 238 kts | 89° |
| 2026-05-05 01:14 | 26.06711 | -80.03346 | 2156 ft | 245 kts | 89° |
| 2026-05-05 01:14 | 26.06803 | -80.01446 | 2580 ft | 248 kts | 77° |
| 2026-05-05 01:14 | 26.07528 | -79.99707 | 3000 ft | 253 kts | 53° |
| 2026-05-05 01:14 | 26.08652 | -79.98182 | 3450 ft | 256 kts | 51° |
| 2026-05-05 01:15 | 26.09791 | -79.96655 | 3907 ft | 258 kts | 52° |
| 2026-05-05 01:15 | 26.10948 | -79.95103 | 4289 ft | 263 kts | 51° |
| 2026-05-05 01:15 | 26.12118 | -79.93526 | 4735 ft | 266 kts | 51° |
| 2026-05-05 01:15 | 26.13303 | -79.91922 | 5118 ft | 270 kts | 51° |
| 2026-05-05 01:16 | 26.14505 | -79.90293 | 5488 ft | 275 kts | 50° |
| 2026-05-05 01:16 | 26.15727 | -79.88637 | 5863 ft | 279 kts | 51° |
| 2026-05-05 01:16 | 26.16910 | -79.86941 | 6226 ft | 283 kts | 53° |
| 2026-05-05 01:16 | 26.18084 | -79.85157 | 6561 ft | 288 kts | 53° |
| 2026-05-05 01:17 | 26.19255 | -79.83335 | 6936 ft | 291 kts | 53° |
| 2026-05-05 01:17 | 26.20440 | -79.81487 | 7254 ft | 295 kts | 54° |
| 2026-05-05 01:17 | 26.21634 | -79.79628 | 7683 ft | 295 kts | 54° |
| 2026-05-05 01:17 | 26.22839 | -79.77760 | 7998 ft | 299 kts | 53° |
| 2026-05-05 01:18 | 26.24065 | -79.75868 | 8350 ft | 302 kts | 53° |
| 2026-05-05 01:18 | 26.25298 | -79.73966 | 8714 ft | 305 kts | 53° |
| 2026-05-05 01:18 | 26.26552 | -79.72044 | 9047 ft | 308 kts | 53° |
| 2026-05-05 01:18 | 26.27815 | -79.70114 | 9411 ft | 309 kts | 53° |
| 2026-05-05 01:19 | 26.29101 | -79.68174 | 9738 ft | 312 kts | 50° |
| 2026-05-05 01:19 | 26.30563 | -79.66386 | 10057 ft | 314 kts | 44° |
| 2026-05-05 01:19 | 26.32103 | -79.64618 | 10182 ft | 323 kts | 44° |
| 2026-05-05 01:19 | 26.33688 | -79.62799 | 10301 ft | 330 kts | 44° |
| 2026-05-05 01:20 | 26.35305 | -79.60940 | 10415 ft | 338 kts | 44° |
| 2026-05-05 01:20 | 26.36930 | -79.59074 | 10537 ft | 343 kts | 44° |
| 2026-05-05 01:20 | 26.38601 | -79.57151 | 10661 ft | 348 kts | 45° |
| 2026-05-05 01:20 | 26.40292 | -79.55202 | 10831 ft | 351 kts | 45° |
| 2026-05-05 01:21 | 26.41994 | -79.53241 | 11014 ft | 352 kts | 45° |
| 2026-05-05 01:21 | 26.43699 | -79.51277 | 11213 ft | 353 kts | 44° |
| 2026-05-05 01:21 | 26.45414 | -79.49301 | 11398 ft | 354 kts | 45° |
| 2026-05-05 01:21 | 26.47129 | -79.47325 | 11589 ft | 355 kts | 45° |
| 2026-05-05 01:22 | 26.48852 | -79.45338 | 11791 ft | 357 kts | 45° |
| 2026-05-05 01:22 | 26.50579 | -79.43342 | 11956 ft | 358 kts | 45° |
| 2026-05-05 01:22 | 26.52313 | -79.41337 | 12150 ft | 359 kts | 45° |
| 2026-05-05 01:22 | 26.54052 | -79.39327 | 12311 ft | 360 kts | 44° |
| 2026-05-05 01:23 | 26.55947 | -79.37508 | 12485 ft | 359 kts | 33° |
| 2026-05-05 01:23 | 26.58063 | -79.36021 | 12643 ft | 360 kts | 29° |
| 2026-05-05 01:23 | 26.60204 | -79.34575 | 12810 ft | 361 kts | 29° |
| 2026-05-05 01:23 | 26.62353 | -79.33119 | 12965 ft | 362 kts | 29° |
| 2026-05-05 01:24 | 26.63781 | -79.32149 | 13076 ft | 362 kts | 29° |
| 2026-05-05 01:24 | 26.65936 | -79.30684 | 13226 ft | 363 kts | 30° |
| 2026-05-05 01:24 | 26.68096 | -79.29213 | 13375 ft | 364 kts | 29° |
| 2026-05-05 01:24 | 26.70265 | -79.27735 | 13528 ft | 365 kts | 29° |
| 2026-05-05 01:25 | 26.72436 | -79.26256 | 13674 ft | 366 kts | 29° |
| 2026-05-05 01:25 | 26.74614 | -79.24771 | 13823 ft | 367 kts | 30° |
| 2026-05-05 01:25 | 26.76794 | -79.23284 | 13952 ft | 368 kts | 29° |
| 2026-05-05 01:25 | 26.78983 | -79.21790 | 14068 ft | 369 kts | 29° |
| 2026-05-05 01:26 | 26.81177 | -79.20291 | 14183 ft | 370 kts | 29° |
| 2026-05-05 01:26 | 26.83374 | -79.18791 | 14302 ft | 370 kts | 29° |
| 2026-05-05 01:26 | 26.85522 | -79.17321 | 14854 ft | 350 kts | 28° |
| 2026-05-05 01:26 | 26.87503 | -79.15960 | 15699 ft | 327 kts | 27° |
| 2026-05-05 01:27 | 26.89403 | -79.14653 | 16483 ft | 310 kts | 26° |
| 2026-05-05 01:27 | 26.91221 | -79.13410 | 16871 ft | 316 kts | 26° |
| 2026-05-05 01:27 | 26.93159 | -79.12098 | 17007 ft | 334 kts | 26° |
| 2026-05-05 01:27 | 26.95203 | -79.10718 | 17147 ft | 351 kts | 26° |
| 2026-05-05 01:28 | 26.97345 | -79.09268 | 17279 ft | 368 kts | 26° |
| 2026-05-05 01:28 | 26.99581 | -79.07742 | 17419 ft | 384 kts | 27° |
| 2026-05-05 01:28 | 27.01905 | -79.06147 | 17542 ft | 399 kts | 27° |
| 2026-05-05 01:28 | 27.04308 | -79.04491 | 17791 ft | 410 kts | 27° |
| 2026-05-05 01:29 | 27.06756 | -79.02804 | 18295 ft | 415 kts | 27° |
| 2026-05-05 01:29 | 27.09227 | -79.01100 | 18758 ft | 418 kts | 27° |
| 2026-05-05 01:29 | 27.11715 | -78.99387 | 19218 ft | 421 kts | 27° |
| 2026-05-05 01:29 | 27.14222 | -78.97662 | 19682 ft | 424 kts | 27° |
| 2026-05-05 01:30 | 27.16746 | -78.95925 | 20152 ft | 427 kts | 27° |
| 2026-05-05 01:30 | 27.19294 | -78.94171 | 20622 ft | 431 kts | 27° |
| 2026-05-05 01:30 | 27.21826 | -78.92428 | 21087 ft | 434 kts | 27° |
| 2026-05-05 01:30 | 27.24412 | -78.90648 | 21548 ft | 437 kts | 26° |
| 2026-05-05 01:31 | 27.27009 | -78.88860 | 22006 ft | 440 kts | 26° |
| 2026-05-05 01:31 | 27.29629 | -78.87056 | 22449 ft | 443 kts | 26° |
| 2026-05-05 01:31 | 27.32272 | -78.85232 | 22877 ft | 446 kts | 26° |
| 2026-05-05 01:31 | 27.34924 | -78.83398 | 23296 ft | 449 kts | 26° |
| 2026-05-05 01:32 | 27.37608 | -78.81574 | 23689 ft | 450 kts | 23° |
| 2026-05-05 01:32 | 27.40455 | -78.80152 | 24028 ft | 446 kts | 13° |
| 2026-05-05 01:32 | 27.43434 | -78.79275 | 24373 ft | 441 kts | 3° |
| 2026-05-05 01:32 | 27.46467 | -78.78812 | 24728 ft | 441 kts | 1° |
| 2026-05-05 01:33 | 27.49519 | -78.78373 | 25080 ft | 443 kts | 1° |
| 2026-05-05 01:33 | 27.52583 | -78.77931 | 25437 ft | 445 kts | 1° |
| 2026-05-05 01:33 | 27.55665 | -78.77485 | 25788 ft | 447 kts | 1° |
| 2026-05-05 01:33 | 27.58758 | -78.77031 | 26132 ft | 449 kts | 1° |
| 2026-05-05 01:34 | 27.61868 | -78.76573 | 26505 ft | 452 kts | 1° |
| 2026-05-05 01:34 | 27.64993 | -78.76111 | 26838 ft | 454 kts | 1° |
| 2026-05-05 01:34 | 27.68135 | -78.75647 | 27171 ft | 456 kts | 1° |
| 2026-05-05 01:34 | 27.71290 | -78.75182 | 27495 ft | 458 kts | 1° |
| 2026-05-05 01:35 | 27.74419 | -78.74722 | 27823 ft | 460 kts | 1° |
| 2026-05-05 01:35 | 27.77605 | -78.74256 | 28143 ft | 462 kts | 0° |
| 2026-05-05 01:35 | 27.80804 | -78.73789 | 28459 ft | 465 kts | 0° |
| 2026-05-05 01:35 | 27.84017 | -78.73317 | 28762 ft | 467 kts | 0° |
| 2026-05-05 01:36 | 27.87241 | -78.72840 | 29072 ft | 469 kts | 0° |
| 2026-05-05 01:36 | 27.90484 | -78.72361 | 29412 ft | 471 kts | 0° |
| 2026-05-05 01:36 | 27.93742 | -78.71880 | 29737 ft | 472 kts | 1° |
| 2026-05-05 01:36 | 27.97007 | -78.71396 | 30067 ft | 474 kts | 0° |
| 2026-05-05 01:37 | 28.00290 | -78.70910 | 30328 ft | 476 kts | 0° |
| 2026-05-05 01:37 | 28.03574 | -78.70425 | 30655 ft | 476 kts | 0° |
| 2026-05-05 01:37 | 28.06857 | -78.69936 | 31008 ft | 475 kts | 0° |
| 2026-05-05 01:37 | 28.10133 | -78.69450 | 31355 ft | 474 kts | 0° |
| 2026-05-05 01:38 | 28.13406 | -78.68970 | 31699 ft | 474 kts | 0° |
| 2026-05-05 01:38 | 28.16677 | -78.68491 | 32030 ft | 474 kts | 0° |
| 2026-05-05 01:38 | 28.19948 | -78.68012 | 32372 ft | 474 kts | 0° |
| 2026-05-05 01:38 | 28.23218 | -78.67531 | 32682 ft | 474 kts | 0° |
| 2026-05-05 01:39 | 28.26494 | -78.67045 | 32982 ft | 475 kts | 0° |
| 2026-05-05 01:39 | 28.29766 | -78.66556 | 33298 ft | 475 kts | 0° |
| 2026-05-05 01:39 | 28.33039 | -78.66065 | 33618 ft | 474 kts | 0° |
| 2026-05-05 01:39 | 28.36311 | -78.65578 | 33936 ft | 474 kts | 0° |
| 2026-05-05 01:40 | 28.39580 | -78.65094 | 34225 ft | 474 kts | 0° |
| 2026-05-05 01:40 | 28.42805 | -78.64618 | 34502 ft | 473 kts | 0° |
| 2026-05-05 01:40 | 28.46066 | -78.64131 | 34785 ft | 472 kts | 360° |
| 2026-05-05 01:40 | 28.49324 | -78.63644 | 35051 ft | 472 kts | 0° |
| 2026-05-05 01:41 | 28.55792 | -78.62674 | 35103 ft | 466 kts | 360° |
| 2026-05-05 01:41 | 28.62217 | -78.61724 | 35103 ft | 465 kts | 360° |
| 2026-05-05 01:42 | 28.68641 | -78.60773 | 35106 ft | 465 kts | 0° |
| 2026-05-05 01:42 | 28.75057 | -78.59811 | 35106 ft | 465 kts | 360° |
| 2026-05-05 01:43 | 28.81476 | -78.58852 | 35129 ft | 465 kts | 0° |
| 2026-05-05 01:43 | 28.87901 | -78.57877 | 35127 ft | 466 kts | 0° |
| 2026-05-05 01:44 | 28.94326 | -78.56907 | 35127 ft | 466 kts | 0° |
| 2026-05-05 01:44 | 29.00716 | -78.55955 | 35133 ft | 466 kts | 0° |
| 2026-05-05 01:45 | 29.07154 | -78.54983 | 35131 ft | 466 kts | 0° |
| 2026-05-05 01:45 | 29.13576 | -78.54008 | 35125 ft | 465 kts | 360° |
| 2026-05-05 01:46 | 29.20000 | -78.53045 | 35126 ft | 466 kts | 0° |
| 2026-05-05 01:46 | 29.26431 | -78.52069 | 35128 ft | 466 kts | 0° |
| 2026-05-05 01:47 | 29.32868 | -78.51085 | 35134 ft | 466 kts | 0° |
| 2026-05-05 01:47 | 29.39316 | -78.50118 | 35153 ft | 467 kts | 360° |
| 2026-05-05 01:48 | 29.45720 | -78.49158 | 35147 ft | 467 kts | 360° |
| 2026-05-05 01:48 | 29.52098 | -78.49102 | 35141 ft | 452 kts | 346° |
| 2026-05-05 01:49 | 29.58366 | -78.49783 | 35141 ft | 453 kts | 346° |
| 2026-05-05 01:49 | 29.64643 | -78.50462 | 35167 ft | 453 kts | 346° |
| 2026-05-05 01:50 | 29.70926 | -78.51134 | 35161 ft | 453 kts | 346° |
| 2026-05-05 01:50 | 29.77211 | -78.51809 | 35153 ft | 454 kts | 346° |
| 2026-05-05 01:51 | 29.83498 | -78.52494 | 35149 ft | 454 kts | 346° |
| 2026-05-05 01:51 | 29.89793 | -78.53177 | 35187 ft | 454 kts | 346° |
| 2026-05-05 01:52 | 29.96091 | -78.53858 | 35143 ft | 455 kts | 346° |
| 2026-05-05 01:52 | 30.02393 | -78.54538 | 35138 ft | 455 kts | 346° |
| 2026-05-05 01:53 | 30.08703 | -78.55229 | 35139 ft | 456 kts | 346° |
| 2026-05-05 01:53 | 30.15044 | -78.55780 | 35138 ft | 464 kts | 353° |
| 2026-05-05 01:54 | 30.21540 | -78.54967 | 35144 ft | 471 kts | 359° |
| 2026-05-05 01:54 | 30.28005 | -78.54038 | 35145 ft | 471 kts | 359° |
| 2026-05-05 01:55 | 30.34511 | -78.53103 | 35144 ft | 471 kts | 359° |
| 2026-05-05 01:55 | 30.41017 | -78.52178 | 35145 ft | 471 kts | 359° |
| 2026-05-05 01:56 | 30.47528 | -78.51199 | 35173 ft | 472 kts | 360° |
| 2026-05-05 01:56 | 30.54049 | -78.50121 | 35160 ft | 473 kts | 360° |
| 2026-05-05 01:57 | 30.60572 | -78.49031 | 35152 ft | 474 kts | 360° |
| 2026-05-05 01:57 | 30.67098 | -78.47963 | 35150 ft | 474 kts | 360° |
| 2026-05-05 01:58 | 30.73626 | -78.46911 | 35200 ft | 474 kts | 359° |
| 2026-05-05 01:58 | 30.80150 | -78.45852 | 35137 ft | 473 kts | 359° |
| 2026-05-05 01:59 | 30.86669 | -78.44791 | 35134 ft | 473 kts | 359° |
| 2026-05-05 01:59 | 30.93202 | -78.43729 | 35139 ft | 474 kts | 359° |
| 2026-05-05 02:00 | 30.99737 | -78.42659 | 35146 ft | 474 kts | 359° |
| 2026-05-05 02:00 | 31.06231 | -78.41592 | 35174 ft | 474 kts | 359° |
| 2026-05-05 02:01 | 31.12765 | -78.40526 | 35166 ft | 474 kts | 359° |
| 2026-05-05 02:01 | 31.19302 | -78.39455 | 35164 ft | 474 kts | 359° |
| 2026-05-05 02:02 | 31.25832 | -78.38377 | 35160 ft | 474 kts | 359° |
| 2026-05-05 02:02 | 31.32347 | -78.37300 | 35146 ft | 471 kts | 359° |
| 2026-05-05 02:03 | 31.38841 | -78.36228 | 35140 ft | 471 kts | 359° |
| 2026-05-05 02:03 | 31.45346 | -78.35159 | 35147 ft | 472 kts | 359° |
| 2026-05-05 02:04 | 31.51853 | -78.34077 | 35153 ft | 472 kts | 359° |
| 2026-05-05 02:04 | 31.58355 | -78.33002 | 35146 ft | 469 kts | 0° |
| 2026-05-05 02:05 | 31.64814 | -78.31930 | 35139 ft | 468 kts | 0° |
| 2026-05-05 02:05 | 31.71274 | -78.30859 | 35139 ft | 468 kts | 0° |
| 2026-05-05 02:06 | 31.77730 | -78.29793 | 35139 ft | 469 kts | 0° |
| 2026-05-05 02:06 | 31.84194 | -78.28727 | 35166 ft | 468 kts | 1° |
| 2026-05-05 02:07 | 31.90605 | -78.27651 | 35164 ft | 468 kts | 1° |
| 2026-05-05 02:07 | 31.97051 | -78.26575 | 35160 ft | 468 kts | 1° |
| 2026-05-05 02:08 | 32.03498 | -78.25501 | 35156 ft | 467 kts | 0° |
| 2026-05-05 02:08 | 32.09935 | -78.24528 | 35151 ft | 464 kts | 0° |
| 2026-05-05 02:09 | 32.16310 | -78.23635 | 35147 ft | 460 kts | 0° |
| 2026-05-05 02:09 | 32.22680 | -78.22733 | 35150 ft | 460 kts | 0° |
| 2026-05-05 02:10 | 32.29038 | -78.21805 | 35154 ft | 460 kts | 0° |
| 2026-05-05 02:10 | 32.35397 | -78.20872 | 35173 ft | 460 kts | 1° |
| 2026-05-05 02:11 | 32.41757 | -78.19931 | 35164 ft | 460 kts | 1° |
| 2026-05-05 02:11 | 32.48056 | -78.19002 | 35162 ft | 459 kts | 1° |
| 2026-05-05 02:12 | 32.57569 | -78.17604 | 35160 ft | 459 kts | 1° |
| 2026-05-05 02:13 | 32.63906 | -78.16673 | 35176 ft | 459 kts | 1° |
| 2026-05-05 02:13 | 32.69176 | -78.15893 | 35170 ft | 459 kts | 1° |
| 2026-05-05 02:14 | 32.75506 | -78.14956 | 35161 ft | 458 kts | 1° |
| 2026-05-05 02:14 | 32.81835 | -78.14018 | 35158 ft | 458 kts | 1° |
| 2026-05-05 02:15 | 32.88168 | -78.13076 | 35159 ft | 458 kts | 1° |
| 2026-05-05 02:15 | 32.94491 | -78.12139 | 35156 ft | 458 kts | 1° |
| 2026-05-05 02:16 | 33.00818 | -78.11199 | 35155 ft | 458 kts | 1° |
| 2026-05-05 02:16 | 33.07148 | -78.10260 | 35157 ft | 458 kts | 1° |
| 2026-05-05 02:17 | 33.13472 | -78.09318 | 35171 ft | 458 kts | 1° |
| 2026-05-05 02:17 | 33.19789 | -78.08371 | 35161 ft | 457 kts | 1° |
| 2026-05-05 02:18 | 33.26058 | -78.07435 | 35158 ft | 457 kts | 1° |
| 2026-05-05 02:18 | 33.32377 | -78.06491 | 35146 ft | 457 kts | 1° |
| 2026-05-05 02:19 | 33.38686 | -78.05549 | 35169 ft | 457 kts | 1° |
| 2026-05-05 02:19 | 33.45004 | -78.04596 | 35162 ft | 457 kts | 1° |
| 2026-05-05 02:20 | 33.51309 | -78.03642 | 35151 ft | 457 kts | 1° |
| 2026-05-05 02:20 | 33.57607 | -78.02684 | 35144 ft | 456 kts | 1° |
| 2026-05-05 02:21 | 33.63904 | -78.01740 | 35172 ft | 456 kts | 1° |
| 2026-05-05 02:21 | 33.70196 | -78.00794 | 35161 ft | 455 kts | 1° |
| 2026-05-05 02:22 | 33.76475 | -77.99847 | 35153 ft | 455 kts | 1° |
| 2026-05-05 02:22 | 33.82752 | -77.98900 | 35150 ft | 454 kts | 1° |
| 2026-05-05 02:23 | 33.89022 | -77.98104 | 35170 ft | 449 kts | 355° |
| 2026-05-05 02:23 | 33.95233 | -77.97885 | 35164 ft | 449 kts | 356° |
| 2026-05-05 02:24 | 34.01476 | -77.97660 | 35150 ft | 449 kts | 355° |
| 2026-05-05 02:24 | 34.07714 | -77.97437 | 35150 ft | 448 kts | 356° |
| 2026-05-05 02:25 | 34.13955 | -77.97205 | 35146 ft | 448 kts | 356° |
| 2026-05-05 02:25 | 34.20192 | -77.96981 | 35158 ft | 448 kts | 356° |
| 2026-05-05 02:26 | 34.26428 | -77.96763 | 35154 ft | 448 kts | 356° |
| 2026-05-05 02:26 | 34.32673 | -77.96535 | 35151 ft | 448 kts | 356° |
| 2026-05-05 02:27 | 34.38908 | -77.96301 | 35144 ft | 448 kts | 356° |
| 2026-05-05 02:27 | 34.45134 | -77.96078 | 35151 ft | 447 kts | 356° |
| 2026-05-05 02:28 | 34.51351 | -77.95858 | 35143 ft | 447 kts | 356° |
| 2026-05-05 02:28 | 34.57527 | -77.95632 | 35143 ft | 447 kts | 356° |
| 2026-05-05 02:29 | 34.63740 | -77.95400 | 35144 ft | 446 kts | 355° |
| 2026-05-05 02:29 | 34.69947 | -77.95178 | 35166 ft | 446 kts | 355° |
| 2026-05-05 02:30 | 34.76147 | -77.94954 | 35154 ft | 445 kts | 355° |
| 2026-05-05 02:30 | 34.82335 | -77.94730 | 35146 ft | 445 kts | 355° |
| 2026-05-05 02:31 | 34.88519 | -77.94498 | 35147 ft | 444 kts | 355° |
| 2026-05-05 02:31 | 34.94698 | -77.94266 | 35164 ft | 444 kts | 355° |
| 2026-05-05 02:32 | 35.00866 | -77.94043 | 35156 ft | 443 kts | 355° |
| 2026-05-05 02:32 | 35.07030 | -77.93816 | 35150 ft | 443 kts | 355° |
| 2026-05-05 02:33 | 35.13189 | -77.93591 | 35141 ft | 442 kts | 355° |
| 2026-05-05 02:33 | 35.19337 | -77.93367 | 35141 ft | 442 kts | 355° |
| 2026-05-05 02:34 | 35.25489 | -77.93133 | 35141 ft | 442 kts | 355° |
| 2026-05-05 02:34 | 35.31627 | -77.92927 | 35135 ft | 439 kts | 352° |
| 2026-05-05 02:35 | 35.37691 | -77.93399 | 35133 ft | 436 kts | 350° |
| 2026-05-05 02:35 | 35.43748 | -77.93897 | 35111 ft | 436 kts | 350° |
| 2026-05-05 02:36 | 35.49806 | -77.94393 | 35106 ft | 436 kts | 350° |
| 2026-05-05 02:36 | 35.55866 | -77.94899 | 35105 ft | 436 kts | 349° |
| 2026-05-05 02:37 | 35.61918 | -77.95405 | 35099 ft | 436 kts | 350° |
| 2026-05-05 02:37 | 35.67974 | -77.95910 | 35083 ft | 436 kts | 350° |
| 2026-05-05 02:38 | 35.73940 | -77.96403 | 35030 ft | 433 kts | 350° |
| 2026-05-05 02:38 | 35.79975 | -77.96909 | 35029 ft | 436 kts | 350° |
| 2026-05-05 02:39 | 35.86044 | -77.97426 | 35027 ft | 438 kts | 350° |
| 2026-05-05 02:39 | 35.92151 | -77.97940 | 35034 ft | 440 kts | 350° |
| 2026-05-05 02:40 | 35.98263 | -77.98442 | 35048 ft | 441 kts | 350° |
| 2026-05-05 02:40 | 36.04383 | -77.98956 | 35050 ft | 441 kts | 350° |
| 2026-05-05 02:41 | 36.10514 | -77.99479 | 35049 ft | 441 kts | 350° |
| 2026-05-05 02:41 | 36.16642 | -77.99991 | 35070 ft | 442 kts | 350° |
| 2026-05-05 02:42 | 36.22776 | -78.00503 | 35057 ft | 442 kts | 350° |
| 2026-05-05 02:42 | 36.28911 | -78.01023 | 35042 ft | 442 kts | 350° |
| 2026-05-05 02:43 | 36.35047 | -78.01536 | 35041 ft | 442 kts | 351° |
| 2026-05-05 02:43 | 36.41200 | -78.00926 | 35050 ft | 454 kts | 6° |
| 2026-05-05 02:44 | 36.47387 | -77.99294 | 35039 ft | 454 kts | 6° |
| 2026-05-05 02:44 | 36.53578 | -77.97681 | 35033 ft | 454 kts | 6° |
| 2026-05-05 02:45 | 36.59768 | -77.96066 | 35095 ft | 455 kts | 6° |
| 2026-05-05 02:45 | 36.65957 | -77.94442 | 35123 ft | 454 kts | 6° |
| 2026-05-05 02:46 | 36.72139 | -77.92819 | 35106 ft | 453 kts | 6° |
| 2026-05-05 02:46 | 36.78309 | -77.91195 | 35091 ft | 453 kts | 6° |
| 2026-05-05 02:47 | 36.84480 | -77.89567 | 35073 ft | 453 kts | 6° |
| 2026-05-05 02:47 | 36.90639 | -77.87931 | 35028 ft | 452 kts | 6° |
| 2026-05-05 02:48 | 36.96790 | -77.86303 | 35023 ft | 451 kts | 6° |
| 2026-05-05 02:48 | 37.02938 | -77.84683 | 35019 ft | 451 kts | 6° |
| 2026-05-05 02:49 | 37.09043 | -77.83064 | 35040 ft | 451 kts | 7° |
| 2026-05-05 02:49 | 37.15178 | -77.81427 | 35032 ft | 451 kts | 7° |
| 2026-05-05 02:50 | 37.21312 | -77.79789 | 35036 ft | 450 kts | 7° |
| 2026-05-05 02:50 | 37.27441 | -77.78159 | 35026 ft | 450 kts | 7° |
| 2026-05-05 02:51 | 37.33570 | -77.76522 | 35040 ft | 450 kts | 7° |
| 2026-05-05 02:51 | 37.39692 | -77.74885 | 35036 ft | 450 kts | 7° |
| 2026-05-05 02:52 | 37.45816 | -77.73242 | 35027 ft | 449 kts | 7° |
| 2026-05-05 02:52 | 37.51882 | -77.71305 | 35027 ft | 455 kts | 17° |
| 2026-05-05 02:53 | 37.57463 | -77.67398 | 35035 ft | 462 kts | 28° |
| 2026-05-05 02:53 | 37.62873 | -77.63005 | 35022 ft | 463 kts | 28° |
| 2026-05-05 02:54 | 37.68294 | -77.58615 | 35022 ft | 463 kts | 28° |
| 2026-05-05 02:54 | 37.73726 | -77.54220 | 35019 ft | 464 kts | 28° |
| 2026-05-05 02:55 | 37.79129 | -77.49836 | 35018 ft | 465 kts | 28° |
| 2026-05-05 02:55 | 37.84568 | -77.45409 | 35013 ft | 465 kts | 28° |
| 2026-05-05 02:56 | 37.90006 | -77.40980 | 35007 ft | 465 kts | 28° |
| 2026-05-05 02:56 | 37.95451 | -77.36537 | 35003 ft | 465 kts | 28° |
| 2026-05-05 02:57 | 38.00890 | -77.32081 | 34990 ft | 466 kts | 29° |
| 2026-05-05 02:57 | 38.06337 | -77.27615 | 34982 ft | 467 kts | 28° |
| 2026-05-05 02:58 | 38.11799 | -77.23146 | 34978 ft | 467 kts | 28° |
| 2026-05-05 02:58 | 38.17259 | -77.18671 | 34970 ft | 467 kts | 28° |
| 2026-05-05 02:59 | 38.22726 | -77.14182 | 34984 ft | 468 kts | 29° |
| 2026-05-05 02:59 | 38.28182 | -77.09682 | 34982 ft | 467 kts | 30° |
| 2026-05-05 03:00 | 38.33524 | -77.04945 | 34978 ft | 469 kts | 33° |
| 2026-05-05 03:00 | 38.38649 | -76.99897 | 34977 ft | 469 kts | 35° |
| 2026-05-05 03:01 | 38.43788 | -76.94780 | 34992 ft | 468 kts | 35° |
| 2026-05-05 03:01 | 38.48954 | -76.89756 | 34985 ft | 466 kts | 34° |
| 2026-05-05 03:02 | 38.54131 | -76.84782 | 34979 ft | 465 kts | 34° |
| 2026-05-05 03:02 | 38.58423 | -76.80661 | 34975 ft | 464 kts | 34° |
| 2026-05-05 03:03 | 38.63572 | -76.75675 | 34985 ft | 463 kts | 34° |
| 2026-05-05 03:03 | 38.68701 | -76.70679 | 34973 ft | 463 kts | 34° |
| 2026-05-05 03:04 | 38.73815 | -76.65687 | 34969 ft | 462 kts | 34° |
| 2026-05-05 03:04 | 38.78925 | -76.60691 | 34967 ft | 461 kts | 34° |
| 2026-05-05 03:05 | 38.83998 | -76.55747 | 34975 ft | 461 kts | 34° |
| 2026-05-05 03:05 | 38.89096 | -76.50758 | 34977 ft | 461 kts | 34° |
| 2026-05-05 03:06 | 38.94182 | -76.45752 | 34974 ft | 460 kts | 34° |
| 2026-05-05 03:06 | 38.99244 | -76.40757 | 33909 ft | 456 kts | 35° |
| 2026-05-05 03:06 | 39.01802 | -76.38242 | 32161 ft | 469 kts | 35° |
| 2026-05-05 03:07 | 39.04365 | -76.35627 | 31586 ft | 467 kts | 38° |
| 2026-05-05 03:07 | 39.06794 | -76.32933 | 31445 ft | 455 kts | 40° |
| 2026-05-05 03:07 | 39.09125 | -76.30198 | 30936 ft | 452 kts | 41° |
| 2026-05-05 03:07 | 39.11408 | -76.27440 | 30421 ft | 449 kts | 41° |
| 2026-05-05 03:08 | 39.13671 | -76.24686 | 29888 ft | 446 kts | 41° |
| 2026-05-05 03:08 | 39.15929 | -76.21964 | 29331 ft | 442 kts | 41° |
| 2026-05-05 03:08 | 39.18174 | -76.19297 | 28826 ft | 437 kts | 40° |
| 2026-05-05 03:08 | 39.20419 | -76.16663 | 28318 ft | 432 kts | 40° |
| 2026-05-05 03:09 | 39.22610 | -76.14110 | 27813 ft | 428 kts | 40° |
| 2026-05-05 03:09 | 39.24813 | -76.11550 | 27323 ft | 424 kts | 40° |
| 2026-05-05 03:09 | 39.26997 | -76.09015 | 26833 ft | 420 kts | 40° |
| 2026-05-05 03:09 | 39.29161 | -76.06493 | 26500 ft | 420 kts | 40° |
| 2026-05-05 03:10 | 39.31328 | -76.03959 | 26135 ft | 419 kts | 40° |
| 2026-05-05 03:10 | 39.33482 | -76.01427 | 25772 ft | 418 kts | 41° |
| 2026-05-05 03:10 | 39.35622 | -75.98900 | 25409 ft | 416 kts | 41° |
| 2026-05-05 03:10 | 39.37750 | -75.96385 | 25043 ft | 414 kts | 41° |
| 2026-05-05 03:11 | 39.39872 | -75.93875 | 24694 ft | 412 kts | 40° |
| 2026-05-05 03:11 | 39.41987 | -75.91380 | 24326 ft | 410 kts | 40° |
| 2026-05-05 03:11 | 39.44094 | -75.88894 | 23975 ft | 408 kts | 40° |
| 2026-05-05 03:11 | 39.46190 | -75.86418 | 23619 ft | 407 kts | 40° |
| 2026-05-05 03:12 | 39.48271 | -75.83951 | 23230 ft | 405 kts | 41° |
| 2026-05-05 03:12 | 39.50345 | -75.81488 | 22885 ft | 404 kts | 41° |
| 2026-05-05 03:12 | 39.52379 | -75.79070 | 22539 ft | 403 kts | 41° |
| 2026-05-05 03:12 | 39.54442 | -75.76616 | 22185 ft | 401 kts | 41° |
| 2026-05-05 03:13 | 39.56492 | -75.74180 | 21847 ft | 399 kts | 41° |
| 2026-05-05 03:13 | 39.58533 | -75.71755 | 21510 ft | 398 kts | 41° |
| 2026-05-05 03:13 | 39.60577 | -75.69326 | 21163 ft | 398 kts | 41° |
| 2026-05-05 03:13 | 39.62680 | -75.66831 | 20818 ft | 423 kts | 41° |
| 2026-05-05 03:14 | 39.64914 | -75.64179 | 20445 ft | 447 kts | 41° |
| 2026-05-05 03:14 | 39.67235 | -75.61417 | 20035 ft | 455 kts | 41° |
| 2026-05-05 03:14 | 39.69568 | -75.58630 | 19596 ft | 456 kts | 41° |
| 2026-05-05 03:14 | 39.71895 | -75.55836 | 19125 ft | 455 kts | 41° |
| 2026-05-05 03:15 | 39.74212 | -75.53041 | 18661 ft | 453 kts | 42° |
| 2026-05-05 03:15 | 39.76520 | -75.50252 | 18201 ft | 456 kts | 42° |
| 2026-05-05 03:15 | 39.78870 | -75.47408 | 17706 ft | 464 kts | 42° |
| 2026-05-05 03:15 | 39.81233 | -75.44549 | 17304 ft | 463 kts | 42° |
| 2026-05-05 03:16 | 39.83585 | -75.41701 | 16819 ft | 460 kts | 41° |
| 2026-05-05 03:16 | 39.85915 | -75.38880 | 16358 ft | 455 kts | 41° |
| 2026-05-05 03:16 | 39.88220 | -75.36087 | 15899 ft | 451 kts | 41° |
| 2026-05-05 03:16 | 39.90509 | -75.33316 | 15445 ft | 447 kts | 41° |
| 2026-05-05 03:17 | 39.92776 | -75.30567 | 14989 ft | 443 kts | 41° |
| 2026-05-05 03:17 | 39.95026 | -75.27832 | 14547 ft | 440 kts | 41° |
| 2026-05-05 03:17 | 39.97254 | -75.25124 | 14107 ft | 436 kts | 40° |
| 2026-05-05 03:17 | 39.99468 | -75.22431 | 13650 ft | 433 kts | 40° |
| 2026-05-05 03:18 | 40.01662 | -75.19761 | 13191 ft | 430 kts | 40° |
| 2026-05-05 03:18 | 40.03844 | -75.17104 | 12743 ft | 428 kts | 40° |
| 2026-05-05 03:18 | 40.06012 | -75.14457 | 12322 ft | 425 kts | 40° |
| 2026-05-05 03:18 | 40.08162 | -75.11826 | 11902 ft | 423 kts | 40° |
| 2026-05-05 03:19 | 40.12399 | -75.06637 | 11056 ft | 418 kts | 40° |
| 2026-05-05 03:19 | 40.14515 | -75.04051 | 10662 ft | 415 kts | 40° |
| 2026-05-05 03:19 | 40.16623 | -75.01468 | 10282 ft | 413 kts | 40° |
| 2026-05-05 03:20 | 40.18718 | -74.98900 | 9884 ft | 412 kts | 40° |
| 2026-05-05 03:20 | 40.20781 | -74.96368 | 9462 ft | 394 kts | 40° |
| 2026-05-05 03:20 | 40.22691 | -74.94004 | 9024 ft | 362 kts | 40° |
| 2026-05-05 03:20 | 40.24447 | -74.91828 | 8769 ft | 332 kts | 40° |
| 2026-05-05 03:21 | 40.26050 | -74.89815 | 8471 ft | 310 kts | 41° |
| 2026-05-05 03:21 | 40.27530 | -74.87816 | 7952 ft | 299 kts | 44° |
| 2026-05-05 03:21 | 40.28919 | -74.85850 | 8009 ft | 293 kts | 44° |
| 2026-05-05 03:21 | 40.30292 | -74.83886 | 7910 ft | 292 kts | 44° |
| 2026-05-05 03:22 | 40.31639 | -74.81962 | 7669 ft | 283 kts | 44° |
| 2026-05-05 03:22 | 40.32961 | -74.80088 | 7532 ft | 277 kts | 44° |
| 2026-05-05 03:22 | 40.34256 | -74.78259 | 7417 ft | 271 kts | 44° |
| 2026-05-05 03:22 | 40.35535 | -74.76448 | 7293 ft | 271 kts | 44° |
| 2026-05-05 03:23 | 40.36799 | -74.74661 | 7172 ft | 270 kts | 44° |
| 2026-05-05 03:23 | 40.38078 | -74.72857 | 7041 ft | 264 kts | 44° |
| 2026-05-05 03:23 | 40.39313 | -74.71118 | 6921 ft | 263 kts | 44° |
| 2026-05-05 03:23 | 40.40559 | -74.69366 | 6795 ft | 263 kts | 43° |
| 2026-05-05 03:24 | 40.41947 | -74.67839 | 6670 ft | 259 kts | 28° |
| 2026-05-05 03:24 | 40.43529 | -74.66771 | 6532 ft | 254 kts | 15° |
| 2026-05-05 03:24 | 40.45220 | -74.66169 | 6410 ft | 250 kts | 5° |
| 2026-05-05 03:24 | 40.46929 | -74.65725 | 6293 ft | 250 kts | 5° |
| 2026-05-05 03:25 | 40.48638 | -74.65273 | 6160 ft | 250 kts | 6° |
| 2026-05-05 03:25 | 40.50348 | -74.64815 | 6033 ft | 251 kts | 6° |
| 2026-05-05 03:25 | 40.52063 | -74.64351 | 5902 ft | 251 kts | 6° |
| 2026-05-05 03:25 | 40.53778 | -74.63888 | 5785 ft | 252 kts | 6° |
| 2026-05-05 03:26 | 40.55501 | -74.63425 | 5659 ft | 252 kts | 6° |
| 2026-05-05 03:26 | 40.57220 | -74.62963 | 5532 ft | 253 kts | 6° |
| 2026-05-05 03:26 | 40.58939 | -74.62503 | 5430 ft | 250 kts | 6° |
| 2026-05-05 03:26 | 40.60631 | -74.62044 | 5312 ft | 247 kts | 6° |
| 2026-05-05 03:27 | 40.62312 | -74.61590 | 5187 ft | 246 kts | 6° |
| 2026-05-05 03:27 | 40.63997 | -74.61137 | 5066 ft | 247 kts | 6° |
| 2026-05-05 03:27 | 40.65680 | -74.60688 | 4938 ft | 247 kts | 6° |
| 2026-05-05 03:27 | 40.67357 | -74.60237 | 4819 ft | 245 kts | 6° |
| 2026-05-05 03:28 | 40.69030 | -74.59788 | 4690 ft | 245 kts | 6° |
| 2026-05-05 03:28 | 40.70700 | -74.59340 | 4565 ft | 244 kts | 6° |
| 2026-05-05 03:28 | 40.72366 | -74.58892 | 4441 ft | 244 kts | 6° |
| 2026-05-05 03:28 | 40.74031 | -74.58442 | 4323 ft | 244 kts | 7° |
| 2026-05-05 03:29 | 40.75699 | -74.57993 | 4204 ft | 245 kts | 6° |
| 2026-05-05 03:29 | 40.77370 | -74.57560 | 4078 ft | 245 kts | 6° |
| 2026-05-05 03:29 | 40.79045 | -74.57119 | 3967 ft | 246 kts | 7° |
| 2026-05-05 03:29 | 40.80717 | -74.56661 | 3839 ft | 245 kts | 7° |
| 2026-05-05 03:30 | 40.82387 | -74.56188 | 3715 ft | 246 kts | 8° |
| 2026-05-05 03:30 | 40.84037 | -74.55711 | 3595 ft | 246 kts | 8° |
| 2026-05-05 03:30 | 40.85712 | -74.55218 | 3468 ft | 247 kts | 9° |
| 2026-05-05 03:30 | 40.87396 | -74.54717 | 3353 ft | 248 kts | 9° |
| 2026-05-05 03:31 | 40.89074 | -74.54216 | 3218 ft | 248 kts | 9° |
| 2026-05-05 03:31 | 40.90752 | -74.53718 | 3104 ft | 246 kts | 9° |
| 2026-05-05 03:31 | 40.92382 | -74.53041 | 2965 ft | 247 kts | 28° |
| 2026-05-05 03:31 | 40.93654 | -74.51551 | 3007 ft | 245 kts | 58° |
| 2026-05-05 03:32 | 40.94300 | -74.49511 | 2995 ft | 238 kts | 89° |
| 2026-05-05 03:32 | 40.94326 | -74.47353 | 3006 ft | 235 kts | 97° |
| 2026-05-05 03:32 | 40.94306 | -74.45193 | 3002 ft | 235 kts | 98° |
| 2026-05-05 03:32 | 40.94296 | -74.43033 | 3001 ft | 234 kts | 97° |
| 2026-05-05 03:33 | 40.94286 | -74.40889 | 2998 ft | 233 kts | 97° |
| 2026-05-05 03:33 | 40.94276 | -74.38748 | 2998 ft | 233 kts | 98° |
| 2026-05-05 03:33 | 40.94263 | -74.36607 | 2998 ft | 233 kts | 97° |
| 2026-05-05 03:33 | 40.94250 | -74.34460 | 2988 ft | 234 kts | 97° |
| 2026-05-05 03:34 | 40.94237 | -74.32299 | 2995 ft | 236 kts | 97° |
| 2026-05-05 03:34 | 40.94224 | -74.30117 | 2997 ft | 237 kts | 97° |
| 2026-05-05 03:34 | 40.94207 | -74.27939 | 3000 ft | 237 kts | 97° |
| 2026-05-05 03:34 | 40.94191 | -74.25765 | 2998 ft | 237 kts | 97° |
| 2026-05-05 03:35 | 40.94179 | -74.23601 | 3002 ft | 235 kts | 97° |
| 2026-05-05 03:35 | 40.94166 | -74.21438 | 3000 ft | 235 kts | 97° |
| 2026-05-05 03:35 | 40.94122 | -74.19285 | 2996 ft | 232 kts | 103° |
| 2026-05-05 03:35 | 40.93773 | -74.17266 | 2999 ft | 226 kts | 118° |
| 2026-05-05 03:36 | 40.93077 | -74.15442 | 2997 ft | 220 kts | 132° |
| 2026-05-05 03:36 | 40.92142 | -74.13939 | 2998 ft | 213 kts | 144° |
| 2026-05-05 03:36 | 40.91002 | -74.12754 | 3000 ft | 206 kts | 156° |
| 2026-05-05 03:36 | 40.89768 | -74.11832 | 3000 ft | 205 kts | 158° |
| 2026-05-05 03:37 | 40.88528 | -74.10910 | 3001 ft | 204 kts | 158° |
| 2026-05-05 03:37 | 40.87294 | -74.09992 | 2987 ft | 205 kts | 158° |
| 2026-05-05 03:37 | 40.86045 | -74.09063 | 2995 ft | 206 kts | 157° |
| 2026-05-05 03:37 | 40.84777 | -74.08198 | 2993 ft | 202 kts | 168° |
| 2026-05-05 03:38 | 40.83422 | -74.07902 | 2897 ft | 196 kts | 186° |
| 2026-05-05 03:38 | 40.82136 | -74.08263 | 2662 ft | 186 kts | 206° |
| 2026-05-05 03:38 | 40.80976 | -74.08999 | 2421 ft | 184 kts | 207° |
| 2026-05-05 03:38 | 40.79826 | -74.09734 | 2200 ft | 183 kts | 207° |
| 2026-05-05 03:39 | 40.78715 | -74.10443 | 1943 ft | 168 kts | 207° |
| 2026-05-05 03:39 | 40.77721 | -74.11076 | 1730 ft | 150 kts | 206° |
| 2026-05-05 03:39 | 40.76803 | -74.11663 | 1553 ft | 144 kts | 206° |
| 2026-05-05 03:39 | 40.75912 | -74.12231 | 1354 ft | 143 kts | 206° |
| 2026-05-05 03:40 | 40.75024 | -74.12797 | 1161 ft | 141 kts | 205° |
| 2026-05-05 03:40 | 40.74139 | -74.13367 | 973 ft | 141 kts | 205° |
| 2026-05-05 03:40 | 40.73248 | -74.13930 | 763 ft | 141 kts | 205° |
| 2026-05-05 03:40 | 40.72365 | -74.14489 | 632 ft | 143 kts | 204° |
| 2026-05-05 03:41 | 40.71479 | -74.15059 | 461 ft | 140 kts | 205° |
| 2026-05-05 03:41 | 40.70610 | -74.15620 | 245 ft | 138 kts | 205° |
| 2026-05-05 03:41 | 40.69737 | -74.16175 | 55 ft | 139 kts | 205° |
| 2026-05-05 03:41 | 40.68950 | -74.16664 | 25 ft | 107 kts | 205° |
| 2026-05-05 03:42 | 40.68435 | -74.16992 | 22 ft | 57 kts | 206° |
| 2026-05-05 03:42 | 40.68148 | -74.17176 | 22 ft | 34 kts | 207° |
| 2026-05-05 03:42 | 40.67998 | -74.17306 | 22 ft | 26 kts | 230° |
| 2026-05-05 03:42 | 40.67953 | -74.17476 | 21 ft | 16 kts | 267° |
| 2026-05-05 03:43 | 40.67954 | -74.17510 | 21 ft | 0 kts | 274° |
| 2026-05-05 03:44 | 40.67955 | -74.17522 | 21 ft | 2 kts | 275° |
| 2026-05-05 03:44 | 40.67958 | -74.17553 | 22 ft | 5 kts | 281° |
| 2026-05-05 03:44 | 40.67976 | -74.17616 | 20 ft | 11 kts | 296° |
| 2026-05-05 03:44 | 40.68013 | -74.17711 | 21 ft | 12 kts | 297° |
| 2026-05-05 03:45 | 40.68049 | -74.17807 | 22 ft | 12 kts | 295° |
| 2026-05-05 03:45 | 40.68089 | -74.17910 | 22 ft | 12 kts | 310° |
| 2026-05-05 03:45 | 40.68127 | -74.17917 | 22 ft | 5 kts | 43° |
| 2026-05-05 03:45 | 40.68147 | -74.17867 | 23 ft | 8 kts | 63° |
| 2026-05-05 03:46 | 40.68193 | -74.17808 | 22 ft | 11 kts | 31° |
| 2026-05-05 03:46 | 40.68271 | -74.17758 | 22 ft | 14 kts | 25° |
| 2026-05-05 03:46 | 40.68367 | -74.17697 | 22 ft | 17 kts | 25° |
| 2026-05-05 03:46 | 40.68419 | -74.17667 | 22 ft | 7 kts | 20° |
| 2026-05-05 03:47 | 40.68476 | -74.17641 | 22 ft | 10 kts | 19° |
| 2026-05-05 03:47 | 40.68552 | -74.17600 | 22 ft | 13 kts | 26° |
| 2026-05-05 03:47 | 40.68641 | -74.17531 | 22 ft | 16 kts | 32° |
| 2026-05-05 03:47 | 40.68751 | -74.17454 | 22 ft | 19 kts | 26° |
| 2026-05-05 03:48 | 40.68838 | -74.17455 | 22 ft | 8 kts | 312° |
| 2026-05-05 03:48 | 40.68860 | -74.17540 | 23 ft | 11 kts | 292° |
| 2026-05-05 03:48 | 40.68887 | -74.17615 | 22 ft | 10 kts | 295° |
| 2026-05-05 03:48 | 40.68872 | -74.17665 | 22 ft | 5 kts | 204° |
| 2026-05-05 03:49 | 40.68863 | -74.17670 | 22 ft | 2 kts | 207° |
| 2026-05-05 03:49 | 40.68856 | -74.17675 | 22 ft | 0 kts | 207° |